Time;durP1;ratioP1;P1;durP2;ratioP2;P2;SDS_P1;SDS_P2;PMS_P1;PMS_P2;Temp;Humidity;BMP_temperature;BMP_pressure;BME280_temperature;BME280_humidity;BME280_pressure;Samples;Min_cycle;Max_cycle;Signal;HPM_P1;HPM_P2
2022/08/05 00:00:41;;;;;;;7.68;3.40;;;19.80;99.90;;;;;;3059932;19;20018;-73
2022/08/05 00:01:47;;;;;;;5.38;3.20;;;19.80;99.90;;;;;;3059570;19;20043;-74
2022/08/05 00:02:48;;;;;;;6.85;3.50;;;19.80;99.90;;;;;;3059795;19;20006;-74
2022/08/05 00:03:53;;;;;;;9.27;3.85;;;19.80;99.90;;;;;;3058890;19;20018;-73
2022/08/05 00:04:57;;;;;;;8.02;3.65;;;19.70;99.90;;;;;;3059251;19;20015;-74
2022/08/05 00:06:01;;;;;;;9.65;3.58;;;19.90;99.90;;;;;;3060884;19;20022;-73
2022/08/05 00:07:02;;;;;;;7.78;3.75;;;19.90;99.90;;;;;;3060034;19;20015;-73
2022/08/05 00:08:08;;;;;;;9.05;4.03;;;19.90;99.90;;;;;;3058312;19;20371;-73
2022/08/05 00:09:09;;;;;;;4.88;3.47;;;19.90;99.90;;;;;;3059579;19;20360;-73
2022/08/05 00:10:13;;;;;;;10.88;4.38;;;19.80;99.90;;;;;;3058699;19;20077;-74
2022/08/05 00:11:15;;;;;;;6.35;3.53;;;19.80;99.90;;;;;;3058855;19;20378;-74
2022/08/05 00:12:18;;;;;;;;;;;19.70;99.90;;;;;;3061816;19;20017;-74
2022/08/05 00:13:19;;;;;;;7.72;3.80;;;19.80;99.90;;;;;;3059554;19;19926;-73
2022/08/05 00:14:23;;;;;;;5.75;3.65;;;19.70;99.90;;;;;;3058546;19;20045;-74
2022/08/05 00:15:25;;;;;;;7.22;3.40;;;19.70;99.90;;;;;;3059343;19;20344;-73
2022/08/05 00:16:29;;;;;;;8.77;3.50;;;19.70;99.90;;;;;;3059471;19;20101;-74
2022/08/05 00:17:30;;;;;;;4.90;3.38;;;19.40;99.90;;;;;;3058987;19;20014;-73
2022/08/05 00:18:34;;;;;;;6.57;3.67;;;19.70;99.90;;;;;;3058830;19;20039;-74
2022/08/05 00:19:35;;;;;;;7.88;3.22;;;19.80;99.90;;;;;;3059390;19;20014;-74
2022/08/05 00:20:42;;;;;;;6.50;3.25;;;19.50;99.90;;;;;;3058291;19;20026;-73
2022/08/05 00:21:43;;;;;;;7.07;3.30;;;19.70;99.90;;;;;;3058716;19;20096;-74
2022/08/05 00:22:47;;;;;;;7.03;3.58;;;19.30;99.90;;;;;;3059161;19;20014;-73
2022/08/05 00:23:48;;;;;;;6.18;2.95;;;19.60;99.90;;;;;;3059739;19;20014;-74
2022/08/05 00:24:52;;;;;;;5.97;3.10;;;19.60;99.90;;;;;;3058232;19;20374;-74
2022/08/05 00:25:53;;;;;;;6.03;2.92;;;19.20;99.90;;;;;;3059263;19;20037;-74
2022/08/05 00:26:57;;;;;;;8.20;3.03;;;19.50;99.90;;;;;;3058970;19;20378;-74
2022/08/05 00:27:59;;;;;;;5.22;2.80;;;19.60;99.90;;;;;;3059856;19;20054;-73
2022/08/05 00:29:03;;;;;;;4.80;2.85;;;19.40;99.90;;;;;;3058800;19;20061;-74
2022/08/05 00:30:05;;;;;;;6.45;2.92;;;19.50;99.90;;;;;;3059438;19;20010;-74
2022/08/05 00:31:09;;;;;;;4.65;2.50;;;19.50;99.90;;;;;;3059908;19;20015;-74
2022/08/05 00:32:11;;;;;;;7.32;2.65;;;19.60;99.90;;;;;;3059146;19;20022;-74
2022/08/05 00:33:17;;;;;;;5.65;2.65;;;19.60;99.90;;;;;;3059016;19;20031;-74
2022/08/05 00:34:18;;;;;;;5.20;2.72;;;19.50;99.90;;;;;;3059503;19;20535;-74
2022/08/05 00:35:22;;;;;;;5.28;2.75;;;19.60;99.90;;;;;;3060585;19;20032;-73
2022/08/05 00:36:26;;;;;;;7.38;2.53;;;19.40;99.90;;;;;;3059518;19;20507;-73
2022/08/05 00:37:30;;;;;;;6.85;2.45;;;19.50;99.90;;;;;;3058455;19;20010;-74
2022/08/05 00:38:32;;;;;;;2.75;1.80;;;19.60;99.90;;;;;;3060368;19;20364;-74
2022/08/05 00:39:35;;;;;;;5.35;2.20;;;19.30;99.90;;;;;;3059490;19;20019;-73
2022/08/05 00:40:46;;;;;;;4.45;2.55;;;19.50;99.90;;;;;;3059561;19;20506;-73
2022/08/05 00:41:50;;;;;;;7.30;2.55;;;19.50;99.90;;;;;;3058765;19;20345;-74
2022/08/05 00:42:51;;;;;;;5.63;2.20;;;19.50;99.90;;;;;;3059200;19;20017;-74
2022/08/05 00:43:55;;;;;;;5.57;2.88;;;19.00;99.90;;;;;;3058594;19;20014;-74
2022/08/05 00:44:57;;;;;;;4.28;2.42;;;19.30;99.90;;;;;;3058978;19;20014;-73
2022/08/05 00:46:00;;;;;;;5.05;2.28;;;19.20;99.90;;;;;;3058668;19;20019;-74
2022/08/05 00:47:04;;;;;;;5.60;2.50;;;19.20;99.90;;;;;;3058180;19;20480;-74
2022/08/05 00:48:06;;;;;;;5.15;2.80;;;19.30;99.90;;;;;;3059965;19;20025;-73
2022/08/05 00:49:10;;;;;;;4.40;2.47;;;19.20;99.90;;;;;;3057607;19;20078;-73
2022/08/05 00:50:11;;;;;;;6.38;2.55;;;19.10;99.90;;;;;;3059050;19;20014;-74
2022/08/05 00:51:16;;;;;;;7.05;2.83;;;19.40;99.90;;;;;;3060155;19;20023;-75
2022/08/05 00:52:21;;;;;;;4.70;2.38;;;19.00;99.90;;;;;;3062087;19;20073;-74
2022/08/05 00:53:25;;;;;;;4.80;2.47;;;19.20;99.90;;;;;;3059959;19;20014;-74
2022/08/05 00:54:27;;;;;;;5.75;2.40;;;19.30;99.90;;;;;;3059872;19;20022;-74
2022/08/05 00:55:31;;;;;;;3.90;2.40;;;19.20;99.90;;;;;;3055840;19;20014;-73
2022/08/05 00:56:32;;;;;;;6.40;2.50;;;19.30;99.90;;;;;;3052714;19;20011;-74
2022/08/05 00:57:36;;;;;;;4.88;2.28;;;19.40;99.90;;;;;;3051676;19;20450;-74
2022/08/05 00:58:37;;;;;;;6.72;2.40;;;19.30;99.90;;;;;;3058118;19;20373;-73
2022/08/05 00:59:41;;;;;;;5.20;2.50;;;19.20;99.90;;;;;;3057812;19;20649;-73
2022/08/05 01:00:43;;;;;;;4.38;2.13;;;19.30;99.90;;;;;;3058467;19;20041;-73
2022/08/05 01:01:47;;;;;;;;;;;19.40;99.90;;;;;;3060130;19;20359;-73
2022/08/05 01:02:49;;;;;;;7.03;2.30;;;19.30;99.90;;;;;;3061514;19;20383;-74
2022/08/05 01:03:53;;;;;;;5.50;2.40;;;19.40;99.90;;;;;;3059927;19;20398;-74
2022/08/05 01:04:55;;;;;;;4.95;2.40;;;19.40;99.90;;;;;;3062112;19;20011;-73
2022/08/05 01:05:59;;;;;;;4.65;2.47;;;19.40;99.90;;;;;;3060336;19;20484;-73
2022/08/05 01:07:01;;;;;;;5.10;2.28;;;19.20;99.90;;;;;;3061264;19;20014;-73
2022/08/05 01:08:07;;;;;;;6.00;2.35;;;19.30;99.90;;;;;;3059715;19;20010;-73
2022/08/05 01:09:08;;;;;;;5.68;2.38;;;19.10;99.90;;;;;;3060513;19;20022;-74
2022/08/05 01:10:15;;;;;;;4.55;2.40;;;19.30;99.90;;;;;;3057899;19;20032;-74
2022/08/05 01:11:20;;;;;;;6.18;2.42;;;19.40;99.90;;;;;;3058624;19;20360;-74
2022/08/05 01:12:28;;;;;;;4.78;2.30;;;19.40;99.90;;;;;;3058355;19;20011;-74
2022/08/05 01:13:40;;;;;;;5.75;2.20;;;19.30;99.90;;;;;;3058951;19;20069;-73
2022/08/05 01:14:51;;;;;;;5.40;2.67;;;19.30;99.90;;;;;;3058531;19;20414;-74
2022/08/05 01:15:58;;;;;;;5.10;2.55;;;19.20;99.90;;;;;;3057725;19;20018;-73
2022/08/05 01:17:07;;;;;;;8.02;2.90;;;19.30;99.90;;;;;;3058569;19;20014;-74
2022/08/05 01:18:14;;;;;;;5.82;2.35;;;19.50;99.90;;;;;;3059141;19;20022;-73
2022/08/05 01:19:31;;;;;;;6.90;2.50;;;19.30;99.90;;;;;;3058649;19;20343;-73
2022/08/05 01:20:41;;;;;;;5.05;2.40;;;19.20;99.90;;;;;;3058182;19;20116;-73
2022/08/05 01:22:00;;;;;;;4.50;2.40;;;19.30;99.90;;;;;;3057893;19;20010;-73
2022/08/05 01:23:22;;;;;;;5.18;2.40;;;19.30;99.90;;;;;;3057736;19;20039;-74
2022/08/05 01:24:37;;;;;;;4.20;2.25;;;19.30;99.90;;;;;;3057647;19;20006;-73
2022/08/05 01:25:58;;;;;;;3.95;2.47;;;19.10;99.90;;;;;;3057456;19;20006;-74
2022/08/05 01:27:06;;;;;;;4.78;2.15;;;19.20;99.90;;;;;;3057639;19;20010;-74
2022/08/05 01:28:26;;;;;;;5.07;2.70;;;19.30;99.90;;;;;;3058978;19;20021;-73
2022/08/05 01:29:34;;;;;;;6.97;2.72;;;19.30;99.90;;;;;;3059235;19;20046;-73
2022/08/05 01:30:41;;;;;;;5.43;2.53;;;19.20;99.90;;;;;;3058173;19;20011;-73
2022/08/05 01:31:47;;;;;;;6.57;2.92;;;19.20;99.90;;;;;;3058547;19;20007;-73
2022/08/05 01:32:53;;;;;;;7.10;2.65;;;19.20;99.90;;;;;;3057896;19;20015;-73
2022/08/05 01:34:01;;;;;;;5.03;2.42;;;19.30;99.90;;;;;;3057947;19;20832;-73
2022/08/05 01:35:10;;;;;;;7.20;2.80;;;19.50;99.90;;;;;;3058489;19;20364;-73
2022/08/05 01:36:15;;;;;;;5.93;2.25;;;19.40;99.90;;;;;;3058864;19;20018;-73
2022/08/05 01:37:24;;;;;;;5.88;2.58;;;19.30;99.90;;;;;;3057227;19;20027;-73
2022/08/05 01:38:26;;;;;;;7.13;2.60;;;19.30;99.90;;;;;;3057013;19;20018;-73
2022/08/05 01:39:32;;;;;;;5.50;2.78;;;19.30;99.90;;;;;;3059834;19;20023;-73
2022/08/05 01:40:35;;;;;;;6.18;2.30;;;19.40;99.90;;;;;;3059424;19;20014;-73
2022/08/05 01:41:39;;;;;;;6.22;2.90;;;19.30;99.90;;;;;;3057543;19;20007;-73
2022/08/05 01:42:43;;;;;;;5.75;2.50;;;19.40;99.90;;;;;;3058242;19;20046;-73
2022/08/05 01:43:51;;;;;;;7.28;2.78;;;19.30;99.90;;;;;;3058761;19;20019;-73
2022/08/05 01:44:55;;;;;;;6.13;2.45;;;19.40;99.90;;;;;;3058255;19;20021;-73
2022/08/05 01:46:00;;;;;;;4.90;2.40;;;19.30;99.90;;;;;;3058783;19;20014;-73
2022/08/05 01:47:05;;;;;;;5.45;2.55;;;19.20;99.90;;;;;;3057707;19;20013;-73
2022/08/05 01:48:07;;;;;;;7.47;2.33;;;19.30;99.90;;;;;;3058107;19;20502;-73
2022/08/05 01:49:14;;;;;;;7.97;2.70;;;19.20;99.90;;;;;;3058056;19;20047;-73
2022/08/05 01:50:21;;;;;;;4.57;2.17;;;19.30;99.90;;;;;;3058033;19;20050;-73
2022/08/05 01:51:25;;;;;;;3.78;2.20;;;19.40;99.90;;;;;;3059232;19;20018;-73
2022/08/05 01:52:28;;;;;;;6.03;2.75;;;19.10;99.90;;;;;;3057184;19;20107;-73
2022/08/05 01:53:36;;;;;;;5.32;2.50;;;19.30;99.90;;;;;;3058240;19;20089;-73
2022/08/05 01:54:40;;;;;;;6.93;2.50;;;19.30;99.90;;;;;;3057068;19;19999;-73
2022/08/05 01:55:46;;;;;;;5.32;2.40;;;19.30;99.90;;;;;;3059365;19;20035;-73
2022/08/05 01:56:50;;;;;;;7.03;2.50;;;19.20;99.90;;;;;;3057291;19;20002;-73
2022/08/05 01:57:55;;;;;;;7.55;2.35;;;19.20;99.90;;;;;;3058093;19;20007;-73
2022/08/05 01:59:04;;;;;;;6.03;2.10;;;19.10;99.90;;;;;;3057866;19;20018;-73
2022/08/05 02:00:08;;;;;;;5.90;2.47;;;19.40;99.90;;;;;;3057104;19;20014;-74
2022/08/05 02:01:14;;;;;;;5.22;2.25;;;19.30;99.90;;;;;;3058232;19;20505;-73
2022/08/05 02:02:19;;;;;;;5.72;2.33;;;19.20;99.90;;;;;;3057856;19;20014;-73
2022/08/05 02:03:27;;;;;;;8.80;2.50;;;19.40;99.90;;;;;;3059147;19;20015;-74
2022/08/05 02:04:32;;;;;;;5.30;2.45;;;19.20;99.90;;;;;;3058098;19;20479;-73
2022/08/05 02:05:39;;;;;;;6.15;2.30;;;19.20;99.90;;;;;;3057771;19;20018;-73
2022/08/05 02:06:41;;;;;;;7.07;2.38;;;19.10;99.90;;;;;;3058090;19;20018;-73
2022/08/05 02:07:45;;;;;;;3.97;2.25;;;19.20;99.90;;;;;;3058239;19;20015;-73
2022/08/05 02:08:46;;;;;;;7.50;2.45;;;19.20;99.90;;;;;;3057495;19;20019;-73
2022/08/05 02:09:50;;;;;;;6.78;2.28;;;19.30;99.90;;;;;;3058020;19;20523;-73
2022/08/05 02:10:58;;;;;;;4.35;2.20;;;19.10;99.90;;;;;;3058132;19;20019;-73
2022/08/05 02:12:08;;;;;;;5.32;2.10;;;19.40;99.90;;;;;;3058410;19;20031;-73
2022/08/05 02:13:14;;;;;;;4.78;2.50;;;19.30;99.90;;;;;;3058796;19;20086;-73
2022/08/05 02:14:28;;;;;;;5.72;2.38;;;19.10;99.90;;;;;;3058528;19;20045;-73
2022/08/05 02:15:34;;;;;;;6.25;2.72;;;19.10;99.90;;;;;;3058430;19;20018;-73
2022/08/05 02:16:46;;;;;;;4.25;2.20;;;19.10;99.90;;;;;;3061157;19;20358;-73
2022/08/05 02:17:51;;;;;;;6.35;2.70;;;19.20;99.90;;;;;;3062660;19;20016;-73
2022/08/05 02:18:58;;;;;;;6.45;2.70;;;19.20;99.90;;;;;;3059534;19;20014;-73
2022/08/05 02:20:03;;;;;;;6.20;2.38;;;19.10;99.90;;;;;;3061408;19;20002;-73
2022/08/05 02:21:11;;;;;;;6.97;2.95;;;19.20;99.90;;;;;;3060509;19;20078;-73
2022/08/05 02:22:16;;;;;;;6.55;3.00;;;19.10;99.90;;;;;;3061156;19;20028;-73
2022/08/05 02:23:25;;;;;;;5.10;2.60;;;19.10;99.90;;;;;;3060154;19;20356;-73
2022/08/05 02:24:31;;;;;;;8.32;2.45;;;19.20;99.90;;;;;;3060294;19;20026;-74
2022/08/05 02:25:39;;;;;;;5.65;2.42;;;19.30;99.90;;;;;;3059692;19;20015;-73
2022/08/05 02:26:49;;;;;;;5.55;2.67;;;19.30;99.90;;;;;;3061353;19;20006;-73
2022/08/05 02:27:51;;;;;;;4.22;2.22;;;19.10;99.90;;;;;;3061306;19;20496;-73
2022/08/05 02:28:57;;;;;;;7.40;2.40;;;19.30;99.90;;;;;;3060580;19;20021;-73
2022/08/05 02:30:01;;;;;;;6.13;2.72;;;19.10;99.90;;;;;;3060512;19;20078;-73
2022/08/05 02:31:09;;;;;;;6.68;2.20;;;19.10;99.90;;;;;;3060805;19;20019;-73
2022/08/05 02:32:12;;;;;;;6.35;2.72;;;19.00;99.90;;;;;;3060878;19;20570;-73
2022/08/05 02:33:19;;;;;;;7.05;2.40;;;19.00;99.90;;;;;;3060102;19;20370;-73
2022/08/05 02:34:21;;;;;;;4.55;2.15;;;19.20;99.90;;;;;;3061146;19;20018;-73
2022/08/05 02:35:29;;;;;;;7.03;2.33;;;18.90;99.90;;;;;;3060237;19;20360;-73
2022/08/05 02:36:34;;;;;;;5.03;2.30;;;19.20;99.90;;;;;;3060708;19;20511;-73
2022/08/05 02:37:40;;;;;;;5.97;2.70;;;19.20;99.90;;;;;;3060764;19;20035;-73
2022/08/05 02:38:45;;;;;;;6.57;2.88;;;19.20;99.90;;;;;;3060143;19;20042;-73
2022/08/05 02:39:50;;;;;;;4.72;2.85;;;19.20;99.90;;;;;;3060410;19;20019;-73
2022/08/05 02:40:54;;;;;;;10.45;3.40;;;19.10;99.90;;;;;;3061306;19;20444;-73
2022/08/05 02:41:59;;;;;;;10.80;3.63;;;19.00;99.90;;;;;;3059277;19;20449;-73
2022/08/05 02:43:01;;;;;;;6.07;2.92;;;19.10;99.90;;;;;;3061524;19;20019;-73
2022/08/05 02:44:08;;;;;;;;;;;19.20;99.90;;;;;;3061245;19;20351;-73
2022/08/05 02:45:13;;;;;;;4.25;2.55;;;19.00;99.90;;;;;;3060944;19;20265;-73
2022/08/05 02:46:18;;;;;;;4.53;3.03;;;19.10;99.90;;;;;;3060699;19;20099;-73
2022/08/05 02:47:23;;;;;;;6.50;2.90;;;18.90;99.90;;;;;;3060414;19;20550;-73
2022/08/05 02:48:25;;;;;;;6.68;3.08;;;19.00;99.90;;;;;;3061653;19;20356;-73
2022/08/05 02:49:33;;;;;;;5.93;2.92;;;19.10;99.90;;;;;;3061813;19;20010;-73
2022/08/05 02:50:35;;;;;;;7.72;3.60;;;19.20;99.90;;;;;;3060261;19;20014;-73
2022/08/05 02:51:40;;;;;;;4.88;3.15;;;19.10;99.90;;;;;;3062490;19;20014;-73
2022/08/05 02:52:44;;;;;;;7.22;3.30;;;19.20;99.90;;;;;;3060376;19;20011;-73
2022/08/05 02:53:49;;;;;;;4.75;2.72;;;19.10;99.90;;;;;;3060245;19;20525;-73
2022/08/05 02:54:52;;;;;;;4.90;3.20;;;19.00;99.90;;;;;;3059867;19;20011;-73
2022/08/05 02:55:57;;;;;;;5.93;3.33;;;19.10;99.90;;;;;;3060337;19;20493;-74
2022/08/05 02:56:58;;;;;;;7.35;3.17;;;19.10;99.90;;;;;;3060282;19;20007;-73
2022/08/05 02:58:04;;;;;;;8.60;3.40;;;19.00;99.90;;;;;;3060600;19;20025;-74
2022/08/05 02:59:06;;;;;;;7.07;3.15;;;18.90;99.90;;;;;;3060336;19;20019;-73
2022/08/05 03:00:11;;;;;;;;;;;19.10;99.90;;;;;;3061237;19;20003;-73
2022/08/05 03:01:22;;;;;;;7.05;3.00;;;18.90;99.90;;;;;;3060382;19;19918;-73
2022/08/05 03:02:31;;;;;;;6.40;3.60;;;18.90;99.90;;;;;;3060399;19;20018;-73
2022/08/05 03:03:34;;;;;;;4.80;3.10;;;19.00;99.90;;;;;;3059786;19;20018;-73
2022/08/05 03:04:40;;;;;;;6.10;3.47;;;19.00;99.90;;;;;;3061836;19;20011;-73
2022/08/05 03:05:42;;;;;;;6.75;3.20;;;18.90;99.90;;;;;;3060400;19;20022;-73
2022/08/05 03:06:46;;;;;;;10.88;3.78;;;19.00;99.90;;;;;;3060519;19;20429;-73
2022/08/05 03:07:48;;;;;;;7.32;2.95;;;18.80;99.90;;;;;;3060184;19;20027;-73
2022/08/05 03:08:52;;;;;;;;;;;18.90;99.90;;;;;;3059040;19;20014;-73
2022/08/05 03:09:56;;;;;;;6.20;3.20;;;19.00;99.90;;;;;;3060527;19;20195;-73
2022/08/05 03:11:00;;;;;;;8.20;3.15;;;18.80;99.90;;;;;;3059916;19;20369;-73
2022/08/05 03:12:01;;;;;;;7.78;3.10;;;18.90;99.90;;;;;;3060247;19;20752;-73
2022/08/05 03:13:13;;;;;;;7.00;3.33;;;18.90;99.90;;;;;;3060773;19;20487;-73
2022/08/05 03:14:14;;;;;;;6.32;3.28;;;19.00;99.90;;;;;;3060341;19;20054;-73
2022/08/05 03:15:18;;;;;;;6.60;3.15;;;18.80;99.90;;;;;;3060296;19;20014;-73
2022/08/05 03:16:22;;;;;;;7.45;3.60;;;18.90;99.90;;;;;;3060154;19;20038;-73
2022/08/05 03:17:26;;;;;;;5.30;3.20;;;18.80;99.90;;;;;;3059335;19;20369;-73
2022/08/05 03:18:27;;;;;;;7.53;3.75;;;18.90;99.90;;;;;;3061947;19;20370;-74
2022/08/05 03:19:31;;;;;;;8.95;3.45;;;18.80;99.90;;;;;;3059291;19;20050;-73
2022/08/05 03:20:32;;;;;;;6.75;3.30;;;18.80;99.90;;;;;;3060186;19;20014;-74
2022/08/05 03:21:36;;;;;;;6.75;3.20;;;18.80;99.90;;;;;;3059952;19;20022;-73
2022/08/05 03:22:38;;;;;;;6.55;3.72;;;19.00;99.90;;;;;;3060269;19;20035;-73
2022/08/05 03:23:44;;;;;;;6.75;3.40;;;18.80;99.90;;;;;;3061373;19;20015;-73
2022/08/05 03:24:47;;;;;;;6.13;3.70;;;17.80;99.90;;;;;;3061089;19;20039;-73
2022/08/05 03:25:51;;;;;;;9.95;4.13;;;18.80;99.90;;;;;;3059328;19;20609;-73
2022/08/05 03:26:52;;;;;;;6.75;3.72;;;19.40;99.90;;;;;;3059537;19;20366;-74
2022/08/05 03:27:57;;;;;;;6.90;4.18;;;18.60;99.90;;;;;;3060976;19;20515;-73
2022/08/05 03:29:01;;;;;;;6.80;3.85;;;18.90;99.90;;;;;;3059059;19;20013;-73
2022/08/05 03:30:03;;;;;;;9.90;4.00;;;18.70;99.90;;;;;;3060192;19;20018;-73
2022/08/05 03:31:07;;;;;;;6.32;3.92;;;18.60;99.90;;;;;;3060956;19;20498;-73
2022/08/05 03:32:12;;;;;;;7.18;3.95;;;18.60;99.90;;;;;;3059809;19;20357;-73
2022/08/05 03:33:16;;;;;;;8.60;3.50;;;18.60;99.90;;;;;;3060938;19;20014;-73
2022/08/05 03:34:20;;;;;;;7.03;3.65;;;18.70;99.90;;;;;;3058811;19;20034;-73
2022/08/05 03:35:21;;;;;;;6.15;3.47;;;18.70;99.90;;;;;;3059938;19;20022;-73
2022/08/05 03:36:26;;;;;;;7.03;3.40;;;18.60;99.90;;;;;;3059845;19;20522;-73
2022/08/05 03:37:32;;;;;;;5.40;3.63;;;18.60;99.90;;;;;;3061777;19;20082;-73
2022/08/05 03:38:39;;;;;;;5.95;3.50;;;18.80;99.90;;;;;;3060145;19;20007;-73
2022/08/05 03:39:54;;;;;;;7.05;3.70;;;18.70;99.90;;;;;;3060242;19;20039;-73
2022/08/05 03:40:55;;;;;;;8.05;3.75;;;18.80;99.90;;;;;;3060579;19;20026;-73
2022/08/05 03:41:59;;;;;;;5.65;3.45;;;18.70;99.90;;;;;;3059380;19;20082;-73
2022/08/05 03:43:01;;;;;;;8.68;3.85;;;18.80;99.90;;;;;;3060148;19;20015;-73
2022/08/05 03:44:05;;;;;;;7.82;3.70;;;18.90;99.90;;;;;;3058938;19;20014;-73
2022/08/05 03:45:08;;;;;;;8.38;4.13;;;18.70;99.90;;;;;;3060265;19;20026;-73
2022/08/05 03:46:12;;;;;;;8.27;3.72;;;18.60;99.90;;;;;;3060812;19;20020;-73
2022/08/05 03:47:16;;;;;;;9.15;3.47;;;18.80;99.90;;;;;;3059574;19;20019;-73
2022/08/05 03:48:20;;;;;;;5.53;3.40;;;18.70;99.90;;;;;;3060843;19;20082;-73
2022/08/05 03:49:24;;;;;;;7.03;3.38;;;18.70;99.90;;;;;;3059631;19;20475;-73
2022/08/05 03:50:41;;;;;;;7.63;3.20;;;18.70;99.90;;;;;;3059612;19;20022;-73
2022/08/05 03:51:51;;;;;;;4.82;3.50;;;18.70;99.90;;;;;;3058912;19;20393;-73
2022/08/05 03:53:03;;;;;;;7.45;3.10;;;18.70;99.90;;;;;;3059624;19;20018;-74
2022/08/05 03:54:15;;;;;;;6.93;3.53;;;18.60;99.90;;;;;;3060260;19;20014;-73
2022/08/05 03:55:24;;;;;;;6.20;3.30;;;18.70;99.90;;;;;;3060363;19;20007;-74
2022/08/05 03:56:32;;;;;;;9.07;3.83;;;18.80;99.90;;;;;;3059924;19;20019;-74
2022/08/05 03:57:35;;;;;;;5.50;3.50;;;18.70;99.90;;;;;;3059947;19;20006;-73
2022/08/05 03:58:41;;;;;;;7.00;3.28;;;18.60;99.90;;;;;;3059103;19;21749;-73
2022/08/05 03:59:48;;;;;;;6.78;3.33;;;18.90;99.90;;;;;;3058791;19;20006;-73
2022/08/05 04:00:54;;;;;;;9.32;3.70;;;18.70;99.90;;;;;;3059168;19;20014;-74
2022/08/05 04:01:58;;;;;;;6.50;3.63;;;18.70;99.90;;;;;;3059000;19;20031;-73
2022/08/05 04:03:05;;;;;;;7.50;3.72;;;18.70;99.90;;;;;;3060652;19;20090;-74
2022/08/05 04:04:09;;;;;;;6.15;3.30;;;18.60;99.90;;;;;;3061177;19;20018;-73
2022/08/05 04:05:15;;;;;;;8.50;3.60;;;18.80;99.90;;;;;;3059377;19;20015;-76
2022/08/05 04:06:17;;;;;;;8.73;3.45;;;18.70;99.90;;;;;;3059736;19;20017;-73
2022/08/05 04:07:21;;;;;;;6.05;2.97;;;18.70;99.90;;;;;;3060756;19;20487;-73
2022/08/05 04:08:23;;;;;;;7.22;3.08;;;18.80;99.90;;;;;;3058148;19;20023;-73
2022/08/05 04:09:30;;;;;;;7.13;3.83;;;18.70;99.90;;;;;;3059028;19;20019;-73
2022/08/05 04:10:32;;;;;;;8.65;3.20;;;18.60;99.90;;;;;;3059696;19;20003;-74
2022/08/05 04:11:38;;;;;;;8.35;3.10;;;18.70;99.90;;;;;;3059550;19;20039;-73
2022/08/05 04:12:39;;;;;;;7.53;3.08;;;18.70;99.90;;;;;;3061187;19;20014;-74
2022/08/05 04:13:44;;;;;;;6.45;2.90;;;18.80;99.90;;;;;;3057386;19;20490;-74
2022/08/05 04:14:46;;;;;;;5.53;2.75;;;18.60;99.90;;;;;;3060540;19;20014;-73
2022/08/05 04:15:50;;;;;;;8.13;3.40;;;18.80;99.90;;;;;;3058466;19;20077;-73
2022/08/05 04:16:52;;;;;;;6.20;2.97;;;18.70;99.90;;;;;;3059724;19;20009;-74
2022/08/05 04:17:56;;;;;;;9.02;3.33;;;18.80;99.90;;;;;;3059271;19;20070;-75
2022/08/05 04:19:03;;;;;;;4.15;3.10;;;18.70;99.90;;;;;;3059468;19;20018;-73
2022/08/05 04:20:05;;;;;;;7.35;2.90;;;18.80;99.90;;;;;;3059470;19;20019;-74
2022/08/05 04:21:09;;;;;;;6.28;3.10;;;18.70;99.90;;;;;;3059292;19;20018;-73
2022/08/05 04:22:11;;;;;;;6.35;3.08;;;18.90;99.90;;;;;;3059191;19;20022;-73
2022/08/05 04:23:15;;;;;;;4.75;3.00;;;18.80;99.90;;;;;;3058150;19;20018;-73
2022/08/05 04:24:17;;;;;;;7.68;3.33;;;18.70;99.90;;;;;;3061007;19;20017;-73
2022/08/05 04:25:21;;;;;;;5.95;2.72;;;18.70;99.90;;;;;;3059156;19;20348;-73
2022/08/05 04:26:26;;;;;;;4.38;2.80;;;18.80;99.90;;;;;;3058708;19;20044;-74
2022/08/05 04:27:27;;;;;;;4.40;2.97;;;18.80;99.90;;;;;;3057828;19;20014;-73
2022/08/05 04:28:31;;;;;;;5.78;2.90;;;18.80;99.90;;;;;;3058994;19;20014;-73
2022/08/05 04:29:33;;;;;;;7.18;2.90;;;18.90;99.90;;;;;;3059488;19;20027;-74
2022/08/05 04:30:37;;;;;;;5.18;2.90;;;18.90;99.90;;;;;;3058964;19;20488;-73
2022/08/05 04:31:38;;;;;;;6.35;2.83;;;18.80;99.90;;;;;;3058446;19;20018;-74
2022/08/05 04:32:42;;;;;;;4.68;2.67;;;18.80;99.90;;;;;;3059226;19;20014;-73
2022/08/05 04:33:43;;;;;;;8.18;3.22;;;18.60;99.90;;;;;;3059420;19;20018;-73
2022/08/05 04:34:49;;;;;;;7.38;3.03;;;18.80;99.90;;;;;;3058649;19;20362;-73
2022/08/05 04:35:51;;;;;;;4.35;2.72;;;18.80;99.90;;;;;;3059137;19;20484;-73
2022/08/05 04:36:55;;;;;;;6.70;3.22;;;18.80;99.90;;;;;;3058886;19;20037;-73
2022/08/05 04:37:56;;;;;;;6.35;2.70;;;18.70;99.90;;;;;;3058054;19;20352;-73
2022/08/05 04:39:00;;;;;;;7.65;2.80;;;18.70;99.90;;;;;;3058416;19;20066;-73
2022/08/05 04:40:01;;;;;;;7.35;2.60;;;18.90;99.90;;;;;;3058872;19;20062;-73
2022/08/05 04:41:05;;;;;;;4.60;2.88;;;18.70;99.90;;;;;;3058764;19;20039;-73
2022/08/05 04:42:08;;;;;;;6.88;2.72;;;19.00;99.90;;;;;;3059096;19;20002;-73
2022/08/05 04:43:12;;;;;;;7.03;3.20;;;18.90;99.90;;;;;;3059055;19;20092;-73
2022/08/05 04:44:13;;;;;;;6.95;2.80;;;18.80;99.90;;;;;;3059198;19;20352;-74
2022/08/05 04:45:17;;;;;;;6.90;2.95;;;18.70;99.90;;;;;;3058185;19;20025;-73
2022/08/05 04:46:18;;;;;;;4.30;2.55;;;18.90;99.90;;;;;;3059654;19;20434;-73
2022/08/05 04:47:22;;;;;;;6.85;2.67;;;18.80;99.90;;;;;;3058067;19;20014;-73
2022/08/05 04:48:23;;;;;;;5.60;2.60;;;18.80;99.90;;;;;;3060188;19;20011;-73
2022/08/05 04:49:27;;;;;;;7.05;2.75;;;19.00;99.90;;;;;;3058899;19;20513;-74
2022/08/05 04:50:37;;;;;;;6.03;2.80;;;19.00;99.90;;;;;;3058005;19;20026;-73
2022/08/05 04:51:41;;;;;;;7.60;3.35;;;18.80;99.90;;;;;;3059103;19;19994;-73
2022/08/05 04:52:42;;;;;;;8.23;2.50;;;18.90;99.90;;;;;;3058836;19;20006;-73
2022/08/05 04:53:46;;;;;;;4.80;2.50;;;18.90;99.90;;;;;;3058387;19;20011;-74
2022/08/05 04:54:47;;;;;;;8.30;2.80;;;19.00;99.90;;;;;;3058262;19;20839;-74
2022/08/05 04:55:51;;;;;;;6.22;3.00;;;18.80;99.90;;;;;;3059257;19;20019;-73
2022/08/05 04:56:53;;;;;;;7.50;2.70;;;18.70;99.90;;;;;;3058803;19;20459;-74
2022/08/05 04:57:57;;;;;;;4.43;2.50;;;18.80;99.90;;;;;;3060456;19;20070;-73
2022/08/05 04:58:58;;;;;;;5.75;2.50;;;18.70;99.90;;;;;;3057561;19;20352;-74
2022/08/05 05:00:02;;;;;;;5.20;2.33;;;18.60;99.90;;;;;;3059194;19;20007;-73
2022/08/05 05:01:03;;;;;;;7.05;2.78;;;18.60;99.90;;;;;;3058384;19;20010;-74
2022/08/05 05:02:07;;;;;;;7.35;2.67;;;18.90;99.90;;;;;;3058759;19;20011;-74
2022/08/05 05:03:13;;;;;;;6.05;2.78;;;18.90;99.90;;;;;;3057904;19;20112;-74
2022/08/05 05:04:14;;;;;;;6.57;2.58;;;18.80;99.90;;;;;;3058429;19;20480;-73
2022/08/05 05:05:18;;;;;;;;;;;18.70;99.90;;;;;;3059143;19;20065;-73
2022/08/05 05:06:23;;;;;;;6.15;2.85;;;18.60;99.90;;;;;;3058211;19;19915;-73
2022/08/05 05:07:27;;;;;;;6.00;2.75;;;18.70;99.90;;;;;;3058578;19;20014;-73
2022/08/05 05:08:28;;;;;;;4.90;2.70;;;18.60;99.90;;;;;;3057719;19;20010;-73
2022/08/05 05:09:32;;;;;;;6.63;2.83;;;18.50;99.90;;;;;;3060360;19;20018;-73
2022/08/05 05:10:41;;;;;;;7.82;2.63;;;18.60;99.90;;;;;;3057783;19;20018;-73
2022/08/05 05:11:43;;;;;;;8.07;2.80;;;18.60;99.90;;;;;;3058292;19;20049;-73
2022/08/05 05:12:47;;;;;;;6.78;2.72;;;18.60;99.90;;;;;;3058104;19;20341;-73
2022/08/05 05:13:48;;;;;;;7.82;2.85;;;18.60;99.90;;;;;;3060093;19;20031;-73
2022/08/05 05:14:52;;;;;;;3.83;2.47;;;18.50;99.90;;;;;;3059152;19;20016;-73
2022/08/05 05:15:53;;;;;;;8.07;2.60;;;18.50;99.90;;;;;;3057638;19;20038;-73
2022/08/05 05:16:57;;;;;;;4.28;2.60;;;18.50;99.90;;;;;;3057930;19;20009;-73
2022/08/05 05:17:58;;;;;;;7.35;2.70;;;18.60;99.90;;;;;;3058581;19;20093;-73
2022/08/05 05:19:02;;;;;;;5.82;2.72;;;18.60;99.90;;;;;;3057807;19;20014;-73
2022/08/05 05:20:05;;;;;;;5.75;2.55;;;18.50;99.90;;;;;;3058765;19;20014;-73
2022/08/05 05:21:09;;;;;;;7.45;2.67;;;18.70;99.90;;;;;;3057971;19;20052;-73
2022/08/05 05:22:13;;;;;;;5.75;3.17;;;18.70;99.90;;;;;;3056627;19;20017;-73
2022/08/05 05:23:17;;;;;;;6.32;2.90;;;18.70;99.90;;;;;;3059911;19;20022;-73
2022/08/05 05:24:20;;;;;;;9.38;3.10;;;18.70;99.90;;;;;;3058994;19;20006;-73
2022/08/05 05:25:24;;;;;;;7.53;2.75;;;18.50;99.90;;;;;;3058420;19;20027;-73
2022/08/05 05:26:28;;;;;;;5.05;2.60;;;18.70;99.90;;;;;;3058456;19;20015;-75
2022/08/05 05:27:31;;;;;;;6.85;2.80;;;18.70;99.90;;;;;;3057826;19;20684;-73
2022/08/05 05:28:35;;;;;;;5.82;2.60;;;18.60;99.90;;;;;;3059347;19;20035;-73
2022/08/05 05:29:36;;;;;;;6.60;2.72;;;18.60;99.90;;;;;;3059071;19;20018;-74
2022/08/05 05:30:40;;;;;;;8.40;2.75;;;18.80;99.90;;;;;;3058404;19;20006;-74
2022/08/05 05:31:42;;;;;;;5.22;2.70;;;18.50;99.90;;;;;;3058681;19;20013;-73
2022/08/05 05:32:46;;;;;;;;;;;18.70;99.90;;;;;;3060077;19;20014;-73
2022/08/05 05:33:50;;;;;;;3.88;2.50;;;19.00;99.90;;;;;;3058540;19;20336;-73
2022/08/05 05:34:51;;;;;;;7.35;3.00;;;18.80;99.90;;;;;;3058281;19;20025;-73
2022/08/05 05:35:55;;;;;;;8.73;3.10;;;18.70;99.90;;;;;;3058613;19;20034;-73
2022/08/05 05:36:56;;;;;;;7.30;3.10;;;18.80;99.90;;;;;;3058876;19;20027;-74